KKLS/KLS METAR and TAF weather

Enter ICAO airport designator
Station Type Date Time Source
KKLS METAR 2019/06/16 20:56 UTC NOAA

KKLS 162056Z AUTO 26006KT 10SM CLR 22/14 A3005 RMK AO2 SLP178 T02220139 58014


Station Type Date Time Source
KKLS Decoded METAR 2019/06/16 20:56 UTC NOAA

Kelso, Kelso-Longview Airport, WA, United States (KKLS) 46-07N 122-54W
Jun 16, 2019 - 04:56 PM EDT / 2019.06.16 2056 UTC
Wind: from the W (260 degrees) at 7 MPH (6 KT):0
Visibility: 10 mile(s):0
Sky conditions: clear
Temperature: 72.0 F (22.2 C)
Dew Point: 57.0 F (13.9 C)
Relative Humidity: 59%
Pressure (altimeter): 30.05 in. Hg (1017 hPa)
Pressure tendency: 0.04 inches (1.4 hPa) lower than three hours ago
ob: KKLS 162056Z AUTO 26006KT 10SM CLR 22/14 A3005 RMK AO2 SLP178 T02220139 58014
cycle: 21

Station Type Date Time Source
KKLS TAF UTC NOAA

Error!

Example: see airport list